Station Historical Data
Daily Summary for January 11, 2018 Units:  English    Metric   Both
« Previous Day
Next Day »
Daily Weekly Monthly Yearly Custom
  High: Low: Average:
Temperature: 60.9 °F 47.8 °F 54 °F
Dew Point: 51.6 °F 38.2 °F 45.7 °F
Humidity: 90% 65% 74%
Wind Speed: 19.0mph 0.0mph 6.6mph
Wind Gust: 32.0mph - -
Wind- - South
Pressure: 30.09 in 29.80 in -
Precipitation: 0.00 in    
Historical Graphs
 
 
Tabular Data for January 11, 2018
Time Temperature Dew Point Pressure Wind Wind Speed Wind Gust Humidity Rainfall Rate (Hourly)
00:04 48.6 °F 39.3 °F 30.06 in SSW 10.0 mph 17.0 mph 70% 0.00 in
00:09 48.7 °F 39.0 °F 30.06 in South 7.0 mph 17.0 mph 69% 0.00 in
00:19 48.6 °F 38.9 °F 30.06 in SSW 6.0 mph 15.0 mph 69% 0.00 in
00:24 48.5 °F 38.8 °F 30.06 in SSW 5.0 mph 18.0 mph 69% 0.00 in
00:29 48.7 °F 39.0 °F 30.05 in South 12.0 mph 14.0 mph 69% 0.00 in
00:34 48.8 °F 39.1 °F 30.05 in South 7.0 mph 15.0 mph 69% 0.00 in
00:39 48.8 °F 38.7 °F 30.05 in South 8.0 mph 15.0 mph 68% 0.00 in
00:49 48.8 °F 38.7 °F 30.05 in South 7.0 mph 16.0 mph 68% 0.00 in
00:54 48.7 °F 38.6 °F 30.05 in South 7.0 mph 16.0 mph 68% 0.00 in
00:59 48.6 °F 38.5 °F 30.05 in South 7.0 mph 14.0 mph 68% 0.00 in
01:04 48.5 °F 38.4 °F 30.05 in SSE 11.0 mph 13.0 mph 68% 0.00 in
01:09 48.3 °F 38.2 °F 30.05 in South 6.0 mph 13.0 mph 68% 0.00 in
01:14 48.3 °F 38.2 °F 30.05 in South 7.0 mph 13.0 mph 68% 0.00 in
01:19 48.2 °F 38.5 °F 30.05 in South 7.0 mph 13.0 mph 69% 0.00 in
01:29 48.1 °F 38.4 °F 30.05 in SSW 9.0 mph 11.0 mph 69% 0.00 in
01:34 48.1 °F 38.4 °F 30.05 in South 7.0 mph 14.0 mph 69% 0.00 in
01:39 48.1 °F 38.4 °F 30.05 in SW 10.0 mph 13.0 mph 69% 0.00 in
01:44 48.3 °F 38.6 °F 30.06 in SSE 11.0 mph 16.0 mph 69% 0.00 in
01:49 48.3 °F 38.6 °F 30.05 in South 7.0 mph 16.0 mph 69% 0.00 in
01:54 48.1 °F 38.4 °F 30.05 in South 6.0 mph 13.0 mph 69% 0.00 in
01:59 48.1 °F 38.4 °F 30.05 in SSW 6.0 mph 15.0 mph 69% 0.00 in
02:09 48.3 °F 38.6 °F 30.06 in South 6.0 mph 16.0 mph 69% 0.00 in
02:14 48.3 °F 38.6 °F 30.06 in SSW 5.0 mph 16.0 mph 69% 0.00 in
02:19 48.2 °F 38.5 °F 30.06 in SSW 5.0 mph 11.0 mph 69% 0.00 in
02:24 48.1 °F 38.4 °F 30.06 in SSE 4.0 mph 8.0 mph 69% 0.00 in
02:29 47.9 °F 38.6 °F 30.06 in South 2.0 mph 8.0 mph 70% 0.00 in
02:34 47.8 °F 38.5 °F 30.05 in SSE 3.0 mph 8.0 mph 70% 0.00 in
02:39 48.0 °F 39.0 °F 30.06 in South 6.0 mph 7.0 mph 71% 0.00 in
02:44 48.3 °F 39.3 °F 30.06 in SSW 4.0 mph 9.0 mph 71% 0.00 in
02:59 48.3 °F 39.3 °F 30.06 in South 4.0 mph 7.0 mph 71% 0.00 in
03:04 48.5 °F 39.9 °F 30.05 in South 4.0 mph 9.0 mph 72% 0.00 in
03:09 48.7 °F 39.7 °F 30.06 in South 4.0 mph 9.0 mph 71% 0.00 in
03:14 48.7 °F 39.7 °F 30.05 in South 4.0 mph 9.0 mph 71% 0.00 in
03:19 49.0 °F 40.0 °F 30.05 in South 4.0 mph 11.0 mph 71% 0.00 in
03:24 49.3 °F 40.7 °F 30.05 in South 4.0 mph 12.0 mph 72% 0.00 in
03:29 49.7 °F 41.0 °F 30.06 in South 5.0 mph 12.0 mph 72% 0.00 in
03:39 50.2 °F 41.2 °F 30.05 in South 8.0 mph 11.0 mph 71% 0.00 in
03:49 50.5 °F 41.1 °F 30.05 in South 6.0 mph 13.0 mph 70% 0.00 in
03:54 50.4 °F 41.0 °F 30.05 in SSW 3.0 mph 10.0 mph 70% 0.00 in
03:59 50.2 °F 40.8 °F 30.05 in South 5.0 mph 10.0 mph 70% 0.00 in
04:04 50.2 °F 40.8 °F 30.05 in South 8.0 mph 9.0 mph 70% 0.00 in
04:09 50.4 °F 41.0 °F 30.06 in South 5.0 mph 9.0 mph 70% 0.00 in
04:14 50.5 °F 41.1 °F 30.06 in South 6.0 mph 10.0 mph 70% 0.00 in
04:19 50.5 °F 41.1 °F 30.06 in SSW 5.0 mph 12.0 mph 70% 0.00 in
04:24 50.6 °F 41.2 °F 30.06 in South 5.0 mph 12.0 mph 70% 0.00 in
04:34 50.5 °F 41.1 °F 30.05 in South 6.0 mph 15.0 mph 70% 0.00 in
04:39 50.6 °F 41.2 °F 30.06 in SSW 6.0 mph 12.0 mph 70% 0.00 in
04:44 50.7 °F 41.3 °F 30.06 in South 7.0 mph 14.0 mph 70% 0.00 in
04:49 50.9 °F 41.5 °F 30.06 in South 5.0 mph 13.0 mph 70% 0.00 in
04:54 51.2 °F 42.1 °F 30.06 in South 4.0 mph 18.0 mph 71% 0.00 in
04:59 51.3 °F 42.2 °F 30.06 in SSW 7.0 mph 14.0 mph 71% 0.00 in
05:04 51.4 °F 42.7 °F 30.06 in WSW 8.0 mph 12.0 mph 72% 0.00 in
05:09 51.5 °F 42.8 °F 30.06 in South 6.0 mph 15.0 mph 72% 0.00 in
05:14 51.4 °F 42.7 °F 30.06 in SSW 5.0 mph 14.0 mph 72% 0.00 in
05:19 51.2 °F 42.5 °F 30.06 in South 7.0 mph 12.0 mph 72% 0.00 in
05:24 50.9 °F 42.2 °F 30.06 in South 6.0 mph 13.0 mph 72% 0.00 in
05:29 50.9 °F 41.8 °F 30.06 in South 6.0 mph 13.0 mph 71% 0.00 in
05:34 50.9 °F 41.8 °F 30.06 in South 13.0 mph 15.0 mph 71% 0.00 in
05:39 51.0 °F 41.6 °F 30.06 in SSW 7.0 mph 15.0 mph 70% 0.00 in
05:44 51.1 °F 41.7 °F 30.06 in SSW 6.0 mph 18.0 mph 70% 0.00 in
05:49 51.0 °F 41.2 °F 30.06 in SSW 6.0 mph 18.0 mph 69% 0.00 in
05:54 50.8 °F 41.4 °F 30.06 in SW 11.0 mph 11.0 mph 70% 0.00 in
05:59 50.7 °F 41.3 °F 30.06 in SSW 5.0 mph 13.0 mph 70% 0.00 in
06:04 50.6 °F 41.2 °F 30.06 in SSW 6.0 mph 18.0 mph 70% 0.00 in
06:09 50.7 °F 41.3 °F 30.06 in SSW 3.0 mph 12.0 mph 70% 0.00 in
06:14 50.6 °F 41.2 °F 30.06 in SSW 6.0 mph 16.0 mph 70% 0.00 in
06:19 50.6 °F 41.2 °F 30.05 in SSW 7.0 mph 12.0 mph 70% 0.00 in
06:24 50.8 °F 41.7 °F 30.05 in SSW 7.0 mph 15.0 mph 71% 0.00 in
06:29 51.0 °F 41.9 °F 30.05 in South 7.0 mph 15.0 mph 71% 0.00 in
06:34 51.1 °F 42.0 °F 30.05 in South 8.0 mph 17.0 mph 71% 0.00 in
06:39 51.1 °F 42.0 °F 30.06 in SSW 7.0 mph 17.0 mph 71% 0.00 in
06:44 51.2 °F 42.1 °F 30.06 in South 7.0 mph 15.0 mph 71% 0.00 in
06:49 51.0 °F 41.9 °F 30.06 in South 14.0 mph 19.0 mph 71% 0.00 in
06:54 51.0 °F 41.9 °F 30.05 in SSW 8.0 mph 16.0 mph 71% 0.00 in
07:00 50.9 °F 41.8 °F 30.06 in South 8.0 mph 16.0 mph 71% 0.00 in
07:09 51.0 °F 42.6 °F 30.06 in SSW 8.0 mph 16.0 mph 73% 0.00 in
07:14 51.0 °F 42.3 °F 30.06 in SSW 8.0 mph 16.0 mph 72% 0.00 in
07:19 50.9 °F 42.6 °F 30.06 in SSW 7.0 mph 14.0 mph 73% 0.00 in
07:24 50.9 °F 42.6 °F 30.06 in South 7.0 mph 12.0 mph 73% 0.00 in
07:34 51.0 °F 42.6 °F 30.06 in South 7.0 mph 16.0 mph 73% 0.00 in
07:39 51.2 °F 42.8 °F 30.06 in SSW 7.0 mph 17.0 mph 73% 0.00 in
07:44 51.3 °F 42.9 °F 30.06 in SSW 7.0 mph 17.0 mph 73% 0.00 in
07:49 51.4 °F 43.0 °F 30.06 in SSW 9.0 mph 15.0 mph 73% 0.00 in
07:54 51.5 °F 43.1 °F 30.07 in SSW 7.0 mph 15.0 mph 73% 0.00 in
07:59 51.4 °F 43.0 °F 30.07 in South 9.0 mph 15.0 mph 73% 0.00 in
08:14 51.4 °F 42.7 °F 30.07 in South 7.0 mph 15.0 mph 72% 0.00 in
08:19 51.3 °F 42.6 °F 30.07 in SSW 6.0 mph 13.0 mph 72% 0.00 in
08:24 51.2 °F 42.8 °F 30.07 in SSW 6.0 mph 13.0 mph 73% 0.00 in
08:29 51.0 °F 43.0 °F 30.07 in SSW 7.0 mph 16.0 mph 74% 0.00 in
08:34 50.8 °F 43.2 °F 30.07 in South 7.0 mph 12.0 mph 75% 0.00 in
08:39 50.9 °F 43.3 °F 30.07 in SSW 5.0 mph 14.0 mph 75% 0.00 in
08:44 51.1 °F 43.4 °F 30.07 in South 6.0 mph 14.0 mph 75% 0.00 in
08:49 51.2 °F 43.5 °F 30.07 in South 6.0 mph 15.0 mph 75% 0.00 in
08:54 51.6 °F 43.9 °F 30.07 in South 6.0 mph 15.0 mph 75% 0.00 in
09:04 52.0 °F 44.0 °F 30.07 in South 6.0 mph 11.0 mph 74% 0.00 in
09:09 52.2 °F 44.2 °F 30.07 in SW 7.0 mph 9.0 mph 74% 0.00 in
09:14 52.4 °F 44.4 °F 30.07 in South 6.0 mph 12.0 mph 74% 0.00 in
09:24 52.9 °F 44.5 °F 30.07 in South 5.0 mph 13.0 mph 73% 0.00 in
09:29 53.3 °F 44.5 °F 30.07 in SSW 4.0 mph 14.0 mph 72% 0.00 in
09:34 53.3 °F 44.5 °F 30.07 in South 4.0 mph 11.0 mph 72% 0.00 in
09:39 53.4 °F 44.6 °F 30.08 in SSW 6.0 mph 12.0 mph 72% 0.00 in
09:44 53.2 °F 44.8 °F 30.07 in SSW 6.0 mph 12.0 mph 73% 0.00 in
09:49 53.0 °F 44.9 °F 30.08 in SSW 6.0 mph 13.0 mph 74% 0.00 in
09:54 52.9 °F 45.2 °F 30.08 in SSW 5.0 mph 12.0 mph 75% 0.00 in
09:59 52.7 °F 45.0 °F 30.08 in South 10.0 mph 11.0 mph 75% 0.00 in
10:04 52.8 °F 45.1 °F 30.08 in South 6.0 mph 12.0 mph 75% 0.00 in
10:09 53.1 °F 45.4 °F 30.09 in SSW 6.0 mph 14.0 mph 75% 0.00 in
10:14 53.0 °F 45.3 °F 30.08 in South 8.0 mph 15.0 mph 75% 0.00 in
10:19 52.6 °F 45.2 °F 30.08 in South 5.0 mph 14.0 mph 76% 0.00 in
10:24 52.2 °F 45.5 °F 30.08 in South 6.0 mph 14.0 mph 78% 0.00 in
10:29 52.2 °F 45.9 °F 30.08 in South 7.0 mph 17.0 mph 79% 0.00 in
10:34 52.2 °F 45.5 °F 30.08 in South 7.0 mph 17.0 mph 78% 0.00 in
10:49 53.1 °F 46.4 °F 30.07 in SSW 5.0 mph 8.0 mph 78% 0.00 in
10:54 53.6 °F 46.2 °F 30.07 in South 5.0 mph 16.0 mph 76% 0.00 in
10:59 53.9 °F 46.2 °F 30.07 in SSE 5.0 mph 14.0 mph 75% 0.00 in
11:04 54.5 °F 46.0 °F 30.07 in South 7.0 mph 14.0 mph 73% 0.00 in
11:14 55.6 °F 46.3 °F 30.05 in SSE 7.0 mph 12.0 mph 71% 0.00 in
11:19 56.1 °F 46.4 °F 30.05 in South 6.0 mph 15.0 mph 70% 0.00 in
11:24 56.3 °F 46.6 °F 30.05 in South 1.0 mph 10.0 mph 70% 0.00 in
11:29 56.2 °F 46.5 °F 30.05 in South 9.0 mph 11.0 mph 70% 0.00 in
11:34 56.3 °F 46.6 °F 30.04 in South 4.0 mph 17.0 mph 70% 0.00 in
11:39 56.5 °F 47.2 °F 30.04 in South 7.0 mph 17.0 mph 71% 0.00 in
11:44 56.8 °F 47.1 °F 30.04 in South 6.0 mph 12.0 mph 70% 0.00 in
11:49 57.1 °F 47.4 °F 30.04 in South 6.0 mph 12.0 mph 70% 0.00 in
11:54 57.6 °F 47.9 °F 30.03 in SSE 9.0 mph 20.0 mph 70% 0.00 in
11:59 58.0 °F 47.5 °F 30.03 in SSW 9.0 mph 13.0 mph 68% 0.00 in
12:04 58.0 °F 47.5 °F 30.03 in South 8.0 mph 17.0 mph 68% 0.00 in
12:09 58.3 °F 47.8 °F 30.02 in South 8.0 mph 17.0 mph 68% 0.00 in
12:14 58.6 °F 47.3 °F 30.02 in SSW 7.0 mph 13.0 mph 66% 0.00 in
12:19 59.1 °F 47.7 °F 30.01 in SSW 8.0 mph 18.0 mph 66% 0.00 in
12:24 59.2 °F 47.8 °F 30.01 in SSW 5.0 mph 17.0 mph 66% 0.00 in
12:34 60.0 °F 48.2 °F 30.00 in SW 5.0 mph 18.0 mph 65% 0.00 in
12:39 60.0 °F 48.2 °F 30.00 in South 14.0 mph 14.0 mph 65% 0.00 in
12:44 60.0 °F 48.2 °F 30.00 in SSW 8.0 mph 19.0 mph 65% 0.00 in
12:49 60.2 °F 48.4 °F 30.00 in SSW 8.0 mph 19.0 mph 65% 0.00 in
12:54 59.9 °F 48.5 °F 29.99 in South 9.0 mph 18.0 mph 66% 0.00 in
12:59 59.7 °F 48.3 °F 29.99 in SE 3.0 mph 17.0 mph 66% 0.00 in
13:04 59.6 °F 48.2 °F 29.99 in SSW 10.0 mph 15.0 mph 66% 0.00 in
13:09 59.6 °F 48.6 °F 29.99 in SSW 7.0 mph 14.0 mph 67% 0.00 in
13:14 59.7 °F 48.7 °F 29.98 in South 8.0 mph 19.0 mph 67% 0.00 in
13:19 59.7 °F 48.7 °F 29.98 in SSW 8.0 mph 19.0 mph 67% 0.00 in
13:24 59.7 °F 48.7 °F 29.98 in SSW 8.0 mph 19.0 mph 67% 0.00 in
13:29 59.9 °F 48.9 °F 29.98 in South 6.0 mph 13.0 mph 67% 0.00 in
13:34 60.0 °F 49.0 °F 29.98 in SSW 7.0 mph 16.0 mph 67% 0.00 in
13:39 60.0 °F 49.0 °F 29.97 in SSE 9.0 mph 18.0 mph 67% 0.00 in
13:54 60.3 °F 49.3 °F 29.97 in South 7.0 mph 20.0 mph 67% 0.00 in
13:59 60.9 °F 49.5 °F 29.96 in SSW 8.0 mph 18.0 mph 66% 0.00 in
14:09 60.6 °F 49.2 °F 29.96 in South 8.0 mph 19.0 mph 66% 0.00 in
14:14 60.6 °F 49.2 °F 29.95 in South 7.0 mph 13.0 mph 66% 0.00 in
14:19 60.5 °F 49.1 °F 29.95 in South 3.0 mph 13.0 mph 66% 0.00 in
14:24 60.4 °F 49.0 °F 29.95 in SSE 14.0 mph 14.0 mph 66% 0.00 in
14:29 60.4 °F 49.0 °F 29.95 in South 6.0 mph 14.0 mph 66% 0.00 in
14:34 60.5 °F 49.1 °F 29.95 in South 7.0 mph 15.0 mph 66% 0.00 in
14:39 60.6 °F 49.2 °F 29.95 in South 7.0 mph 15.0 mph 66% 0.00 in
14:44 60.6 °F 49.2 °F 29.95 in SW 9.0 mph 10.0 mph 66% 0.00 in
14:49 60.5 °F 49.1 °F 29.95 in SSW 7.0 mph 12.0 mph 66% 0.00 in
14:54 60.4 °F 49.0 °F 29.95 in South 7.0 mph 12.0 mph 66% 0.00 in
14:59 60.3 °F 48.9 °F 29.95 in South 6.0 mph 13.0 mph 66% 0.00 in
15:04 60.2 °F 48.8 °F 29.95 in South 5.0 mph 13.0 mph 66% 0.00 in
15:09 60.1 °F 48.7 °F 29.94 in South 4.0 mph 10.0 mph 66% 0.00 in
15:14 60.1 °F 48.7 °F 29.94 in South 5.0 mph 13.0 mph 66% 0.00 in
15:19 60.0 °F 48.6 °F 29.95 in South 5.0 mph 13.0 mph 66% 0.00 in
15:24 60.1 °F 48.7 °F 29.95 in SW 8.0 mph 9.0 mph 66% 0.00 in
15:29 59.9 °F 48.5 °F 29.95 in SW 3.0 mph 8.0 mph 66% 0.00 in
15:34 59.9 °F 48.5 °F 29.95 in SSW 5.0 mph 9.0 mph 66% 0.00 in
15:39 59.8 °F 48.4 °F 29.95 in SSW 5.0 mph 10.0 mph 66% 0.00 in
15:44 59.6 °F 48.6 °F 29.95 in SSW 5.0 mph 12.0 mph 67% 0.00 in
15:49 59.5 °F 48.9 °F 29.95 in SSW 6.0 mph 12.0 mph 68% 0.00 in
15:54 59.3 °F 48.7 °F 29.95 in SW 4.0 mph 13.0 mph 68% 0.00 in
15:59 59.2 °F 48.6 °F 29.95 in SSW 6.0 mph 13.0 mph 68% 0.00 in
16:09 58.6 °F 48.5 °F 29.95 in SSW 3.0 mph 6.0 mph 69% 0.00 in
16:14 58.6 °F 48.5 °F 29.95 in SSW 3.0 mph 8.0 mph 69% 0.00 in
16:19 58.6 °F 48.5 °F 29.95 in SSW 3.0 mph 8.0 mph 69% 0.00 in
16:24 58.4 °F 48.7 °F 29.95 in SSW 3.0 mph 6.0 mph 70% 0.00 in
16:29 58.3 °F 48.2 °F 29.95 in South 3.0 mph 7.0 mph 69% 0.00 in
16:34 58.3 °F 48.2 °F 29.95 in SSW 3.0 mph 8.0 mph 69% 0.00 in
16:39 58.2 °F 48.1 °F 29.95 in SSW 6.0 mph 7.0 mph 69% 0.00 in
16:44 58.0 °F 47.9 °F 29.95 in South 4.0 mph 8.0 mph 69% 0.00 in
16:49 58.1 °F 47.6 °F 29.95 in South 4.0 mph 10.0 mph 68% 0.00 in
16:54 58.1 °F 47.6 °F 29.95 in South 6.0 mph 10.0 mph 68% 0.00 in
16:59 58.0 °F 47.5 °F 29.95 in SSW 4.0 mph 8.0 mph 68% 0.00 in
17:04 57.8 °F 47.7 °F 29.95 in South 1.0 mph 9.0 mph 69% 0.00 in
17:09 57.4 °F 48.1 °F 29.95 in South 4.0 mph 7.0 mph 71% 0.00 in
17:19 56.0 °F 48.5 °F 29.95 in South 3.0 mph 6.0 mph 76% 0.01 in
17:24 55.7 °F 48.6 °F 29.94 in South 3.0 mph 8.0 mph 77% 0.02 in
17:29 55.2 °F 48.8 °F 29.94 in South 2.0 mph 8.0 mph 79% 0.03 in
17:34 54.7 °F 48.6 °F 29.94 in South 1.0 mph 4.0 mph 80% 0.03 in
17:39 54.4 °F 48.7 °F 29.94 in South 2.0 mph 4.0 mph 81% 0.04 in
17:44 54.2 °F 48.8 °F 29.94 in South 1.0 mph 4.0 mph 82% 0.05 in
17:49 53.9 °F 48.9 °F 29.94 in South 1.0 mph 3.0 mph 83% 0.06 in
17:54 53.5 °F 48.8 °F 29.95 in Calm   2.0 mph 84% 0.08 in
18:04 53.1 °F 49.0 °F 29.94 in Calm     86% 0.15 in
18:09 53.0 °F 49.2 °F 29.94 in Calm   3.0 mph 87% 0.17 in
18:14 53.0 °F 49.2 °F 29.93 in South 2.0 mph 3.0 mph 87% 0.18 in
18:19 52.7 °F 48.9 °F 29.93 in South 3.0 mph 3.0 mph 87% 0.19 in
18:24 52.4 °F 48.6 °F 29.93 in South 2.0 mph 3.0 mph 87% 0.19 in
18:29 52.3 °F 48.9 °F 29.93 in South 2.0 mph 4.0 mph 88% 0.19 in
18:34 52.0 °F 48.6 °F 29.92 in SSE 2.0 mph 5.0 mph 88% 0.20 in
18:44 51.7 °F 48.3 °F 29.91 in SSE 1.0 mph 5.0 mph 88% 0.19 in
18:54 51.4 °F 48.3 °F 29.91 in Calm   3.0 mph 89% 0.17 in
19:09 51.4 °F 48.3 °F 29.91 in Calm   4.0 mph 89% 0.12 in
19:14 51.4 °F 48.3 °F 29.90 in SSE 3.0 mph 4.0 mph 89% 0.10 in
19:19 51.4 °F 48.3 °F 29.90 in SSE 2.0 mph 5.0 mph 89% 0.10 in
19:24 51.3 °F 48.2 °F 29.89 in SE 2.0 mph 4.0 mph 89% 0.09 in
19:34 51.3 °F 48.5 °F 29.89 in South 2.0 mph 6.0 mph 90% 0.07 in
19:39 51.5 °F 48.7 °F 29.89 in SSE 3.0 mph 9.0 mph 90% 0.06 in
19:49 52.2 °F 49.4 °F 29.89 in SSW 7.0 mph 12.0 mph 90% 0.07 in
19:54 52.8 °F 49.6 °F 29.89 in South 6.0 mph 18.0 mph 89% 0.08 in
19:59 53.3 °F 50.1 °F 29.89 in South 8.0 mph 18.0 mph 89% 0.07 in
20:09 53.9 °F 50.4 °F 29.89 in South 8.0 mph 18.0 mph 88% 0.06 in
20:14 54.1 °F 50.6 °F 29.88 in South 7.0 mph 16.0 mph 88% 0.08 in
20:19 54.3 °F 50.8 °F 29.88 in ESE 4.0 mph 19.0 mph 88% 0.08 in
20:24 54.5 °F 50.7 °F 29.88 in South 9.0 mph 20.0 mph 87% 0.09 in
20:34 54.6 °F 50.8 °F 29.87 in South 9.0 mph 16.0 mph 87% 0.11 in
20:44 54.9 °F 51.1 °F 29.86 in South 10.0 mph 21.0 mph 87% 0.11 in
20:49 55.0 °F 50.9 °F 29.86 in South 10.0 mph 28.0 mph 86% 0.11 in
20:54 55.2 °F 51.1 °F 29.85 in South 11.0 mph 28.0 mph 86% 0.10 in
20:59 55.3 °F 51.2 °F 29.85 in SSE 19.0 mph 23.0 mph 86% 0.10 in
21:14 55.7 °F 51.3 °F 29.85 in South 11.0 mph 32.0 mph 85% 0.07 in
21:24 55.8 °F 51.4 °F 29.84 in South 12.0 mph 27.0 mph 85% 0.05 in
21:29 56.0 °F 51.6 °F 29.84 in South 11.0 mph 23.0 mph 85% 0.04 in
21:34 56.1 °F 51.3 °F 29.83 in South 11.0 mph 23.0 mph 84% 0.03 in
21:39 56.2 °F 51.4 °F 29.83 in South 11.0 mph 23.0 mph 84% 0.03 in
21:44 56.3 °F 51.5 °F 29.83 in South 11.0 mph 22.0 mph 84% 0.02 in
21:49 56.5 °F 51.4 °F 29.83 in SSW 18.0 mph 24.0 mph 83% 0.01 in
21:54 56.6 °F 51.5 °F 29.83 in SSE 9.0 mph 25.0 mph 83% 0.01 in
21:59 56.7 °F 51.3 °F 29.83 in South 12.0 mph 25.0 mph 82% 0.01 in
22:04 56.8 °F 51.4 °F 29.83 in South 18.0 mph 19.0 mph 82% 0.01 in
22:14 57.1 °F 51.3 °F 29.83 in SE 11.0 mph 21.0 mph 81% 0.00 in
22:19 57.1 °F 51.3 °F 29.83 in South 14.0 mph 22.0 mph 81% 0.00 in
22:24 57.1 °F 51.0 °F 29.82 in SSW 12.0 mph 17.0 mph 80% 0.00 in
22:29 57.1 °F 51.0 °F 29.83 in South 12.0 mph 22.0 mph 80% 0.00 in
22:34 57.0 °F 50.9 °F 29.83 in South 12.0 mph 25.0 mph 80% 0.00 in
22:39 56.8 °F 50.7 °F 29.83 in South 11.0 mph 25.0 mph 80% 0.00 in
22:44 56.7 °F 50.6 °F 29.82 in South 11.0 mph 21.0 mph 80% 0.00 in
22:49 56.7 °F 50.6 °F 29.82 in South 11.0 mph 29.0 mph 80% 0.00 in
22:54 56.7 °F 50.9 °F 29.82 in South 11.0 mph 29.0 mph 81% 0.00 in
23:04 56.8 °F 50.7 °F 29.82 in SSE 6.0 mph 23.0 mph 80% 0.00 in
23:09 56.9 °F 50.8 °F 29.82 in SSE 14.0 mph 23.0 mph 80% 0.00 in
23:14 56.9 °F 50.8 °F 29.82 in South 18.0 mph 21.0 mph 80% 0.00 in
23:24 56.8 °F 50.7 °F 29.82 in SSW 5.0 mph 16.0 mph 80% 0.00 in
23:29 56.7 °F 50.9 °F 29.81 in South 9.0 mph 22.0 mph 81% 0.00 in
23:34 56.9 °F 51.1 °F 29.82 in SSW 7.0 mph 22.0 mph 81% 0.00 in
23:39 57.0 °F 50.9 °F 29.81 in South 11.0 mph 22.0 mph 80% 0.00 in
23:44 57.0 °F 50.9 °F 29.81 in South 10.0 mph 22.0 mph 80% 0.00 in
23:49 56.9 °F 51.1 °F 29.80 in South 10.0 mph 21.0 mph 81% 0.00 in
23:54 56.6 °F 51.2 °F 29.80 in South 9.0 mph 19.0 mph 82% 0.00 in
23:59 56.5 °F 51.1 °F 29.80 in SSW 10.0 mph 18.0 mph 82% 0.00 in
Buffalo, New York, USA
Compliments of Weather Underground - 2.25 mb